createdAt,value
2017-07-07T00:00:02.991Z,1013.66
2017-07-07T00:05:02.685Z,1013.53
2017-07-07T00:10:03.120Z,1013.53
2017-07-07T00:15:02.557Z,1013.74
2017-07-07T00:20:02.896Z,1013.81
2017-07-07T00:25:03.357Z,1013.95
2017-07-07T00:30:02.959Z,1013.79
2017-07-07T00:35:02.640Z,1013.8
2017-07-07T00:40:03.245Z,1013.76
2017-07-07T00:45:02.717Z,1014
2017-07-07T00:50:02.965Z,1014.38
2017-07-07T00:55:03.467Z,1014.26
2017-07-07T01:00:02.941Z,1013.61
2017-07-07T01:05:03.335Z,1014.3
2017-07-07T01:10:02.687Z,1014.46
2017-07-07T01:15:02.964Z,1013.75
2017-07-07T01:20:03.254Z,1013.65
2017-07-07T01:25:02.570Z,1013.75
2017-07-07T01:30:03.074Z,1013.95
2017-07-07T01:35:03.337Z,1014.16
2017-07-07T01:40:02.606Z,1013.81
2017-07-07T01:45:02.901Z,1013.58
2017-07-07T01:50:03.433Z,1013.6
2017-07-07T01:55:02.931Z,1013.9
2017-07-07T02:00:03.600Z,1013.81
2017-07-07T02:05:03.051Z,1013.71
2017-07-07T02:10:02.590Z,1013.56
2017-07-07T02:15:03.019Z,1013.29
2017-07-07T02:20:03.500Z,1013.2
2017-07-07T02:25:03.231Z,1013.6
2017-07-07T02:30:03.499Z,1014.13
2017-07-07T02:35:02.933Z,1014.06
2017-07-07T02:40:03.345Z,1014.34
2017-07-07T02:45:02.698Z,1015.01
2017-07-07T02:50:03.393Z,1014.37
2017-07-07T02:55:02.678Z,1013.63
2017-07-07T03:00:03.118Z,1013.25
2017-07-07T03:05:02.570Z,1013.27
2017-07-07T03:10:03.222Z,1013.16
2017-07-07T03:15:02.602Z,1013.09
2017-07-07T03:20:03.114Z,1013.06
2017-07-07T03:25:03.473Z,1012.79
2017-07-07T03:30:02.704Z,1012.74
2017-07-07T03:35:03.236Z,1012.6
2017-07-07T03:40:02.829Z,1012.58
2017-07-07T03:45:03.486Z,1012.53
2017-07-07T03:50:02.979Z,1012.61
2017-07-07T03:55:03.525Z,1012.55
2017-07-07T04:00:02.818Z,1012.51
2017-07-07T04:05:03.268Z,1012.58
2017-07-07T04:10:02.907Z,1012.67
2017-07-07T04:15:03.396Z,1012.6
2017-07-07T04:20:02.893Z,1012.63
2017-07-07T04:25:03.358Z,1012.63
2017-07-07T04:30:03.429Z,1012.61
2017-07-07T04:35:02.726Z,1012.67
2017-07-07T04:40:03.310Z,1012.62
2017-07-07T04:45:02.566Z,1012.56
2017-07-07T04:50:02.905Z,1012.6
2017-07-07T04:55:03.398Z,1012.6
2017-07-07T05:00:02.893Z,1012.62
2017-07-07T05:05:03.271Z,1012.67
2017-07-07T05:10:02.782Z,1012.63
2017-07-07T05:15:03.325Z,1012.59
2017-07-07T05:20:02.686Z,1012.58
2017-07-07T05:25:02.985Z,1012.53
2017-07-07T05:30:03.494Z,1012.48
2017-07-07T05:35:02.852Z,1012.48
2017-07-07T05:40:03.208Z,1012.55
2017-07-07T05:45:02.611Z,1012.57
2017-07-07T05:50:03.118Z,1012.59
2017-07-07T05:55:02.641Z,1012.62
2017-07-07T06:00:02.905Z,1012.62
2017-07-07T06:05:03.262Z,1012.75
2017-07-07T06:10:02.627Z,1012.76
2017-07-07T06:15:03.137Z,1012.86
2017-07-07T06:20:03.444Z,1012.86
2017-07-07T06:25:02.920Z,1012.74
2017-07-07T06:30:03.351Z,1012.9
2017-07-07T06:35:02.651Z,1012.85
2017-07-07T06:40:03.234Z,1012.85
2017-07-07T06:45:02.818Z,1012.94
2017-07-07T06:50:03.163Z,1012.93
2017-07-07T06:55:03.530Z,1013.01
2017-07-07T07:00:02.827Z,1013.04
2017-07-07T07:05:03.141Z,1012.94
2017-07-07T07:10:03.473Z,1012.95
2017-07-07T07:15:02.692Z,1013.03
2017-07-07T07:20:02.999Z,1013.18
2017-07-07T07:25:02.548Z,1013.14
2017-07-07T07:30:02.951Z,1013.12
2017-07-07T07:35:03.267Z,1013.17
2017-07-07T07:40:02.617Z,1013.16
2017-07-07T07:45:03.087Z,1013.03
2017-07-07T07:50:02.547Z,1012.96
2017-07-07T07:55:03.057Z,1012.92
2017-07-07T08:00:03.473Z,1012.97
2017-07-07T08:05:02.742Z,1013.02
2017-07-07T08:10:03.198Z,1013.06
2017-07-07T08:15:03.491Z,1013.2
2017-07-07T08:20:03.010Z,1013.13
2017-07-07T08:25:02.603Z,1013.16
2017-07-07T08:30:03.089Z,1013.26
2017-07-07T08:35:03.486Z,1013.29
2017-07-07T08:40:02.831Z,1013.34
2017-07-07T08:45:03.071Z,1013.24
2017-07-07T08:50:03.406Z,1013.27
2017-07-07T08:55:02.955Z,1013.42
2017-07-07T09:00:03.388Z,1013.4
2017-07-07T09:05:02.893Z,1013.46
2017-07-07T09:10:03.436Z,1013.56
2017-07-07T09:15:02.879Z,1013.44
2017-07-07T09:20:03.321Z,1013.54
2017-07-07T09:25:02.663Z,1013.53
2017-07-07T09:30:03.172Z,1013.48
2017-07-07T09:35:03.615Z,1013.59
2017-07-07T09:40:02.976Z,1013.48
2017-07-07T09:45:03.218Z,1013.4
2017-07-07T09:50:02.700Z,1013.44
2017-07-07T09:55:03.077Z,1013.48
2017-07-07T10:00:02.583Z,1013.5
2017-07-07T10:05:03.226Z,1013.54
2017-07-07T10:10:02.755Z,1013.52
2017-07-07T10:15:03.210Z,1013.44
2017-07-07T10:20:02.531Z,1013.61
2017-07-07T10:25:02.999Z,1013.54
2017-07-07T10:30:03.270Z,1013.5
2017-07-07T10:35:02.669Z,1013.47
2017-07-07T10:40:03.217Z,1013.43
2017-07-07T10:45:02.875Z,1013.54
2017-07-07T10:50:03.157Z,1013.65
2017-07-07T10:55:03.457Z,1013.59
2017-07-07T11:00:02.934Z,1013.54
2017-07-07T11:05:03.248Z,1013.63
2017-07-07T11:10:02.605Z,1013.67
2017-07-07T11:15:02.879Z,1013.61
2017-07-07T11:20:03.274Z,1013.65
2017-07-07T11:25:02.671Z,1013.68
2017-07-07T11:30:03.008Z,1013.56
2017-07-07T11:35:03.432Z,1013.63
2017-07-07T11:40:02.933Z,1013.65
2017-07-07T11:45:03.444Z,1013.73
2017-07-07T11:50:02.955Z,1013.77
2017-07-07T11:55:03.429Z,1013.76
2017-07-07T12:00:02.695Z,1013.9
2017-07-07T12:05:03.021Z,1013.96
2017-07-07T12:10:03.449Z,1014
2017-07-07T12:15:02.918Z,1014.06
2017-07-07T12:20:03.413Z,1014.08
2017-07-07T12:25:02.884Z,1014
2017-07-07T12:30:03.277Z,1014.05
2017-07-07T12:35:02.881Z,1014.05
2017-07-07T12:40:03.236Z,1014.01
2017-07-07T12:45:02.655Z,1014.03
2017-07-07T12:50:02.929Z,1013.98
2017-07-07T12:55:03.275Z,1014.02
2017-07-07T13:00:02.550Z,1013.98
2017-07-07T13:05:03.062Z,1013.93
2017-07-07T13:10:03.383Z,1014.08
2017-07-07T13:15:02.668Z,1014.05
2017-07-07T13:20:03.135Z,1014.13
2017-07-07T13:25:03.420Z,1014.09
2017-07-07T13:30:02.966Z,1013.93
2017-07-07T13:35:03.231Z,1013.75
2017-07-07T13:40:02.603Z,1013.8
2017-07-07T13:45:02.990Z,1013.8
2017-07-07T13:50:03.302Z,1013.78
2017-07-07T13:55:02.764Z,1013.81
2017-07-07T14:00:03.143Z,1013.84
2017-07-07T14:05:02.595Z,1013.85
2017-07-07T14:10:03.145Z,1013.96
2017-07-07T14:15:02.533Z,1013.9
2017-07-07T14:20:02.800Z,1014.03
2017-07-07T14:25:03.117Z,1014.01
2017-07-07T14:30:03.673Z,1014.02
2017-07-07T14:35:03.013Z,1014.13
2017-07-07T14:40:03.398Z,1014.14
2017-07-07T14:45:02.869Z,1014.04
2017-07-07T14:50:03.178Z,1014.09
2017-07-07T14:55:02.940Z,1014.06
2017-07-07T15:00:03.280Z,1014.16
2017-07-07T15:05:02.796Z,1014.13
2017-07-07T15:10:03.189Z,1014.16
2017-07-07T15:15:02.651Z,1014.14
2017-07-07T15:20:03.151Z,1014.23
2017-07-07T15:25:03.474Z,1014.17
2017-07-07T15:30:02.884Z,1014.35
2017-07-07T15:35:03.180Z,1014.32
2017-07-07T15:40:03.485Z,1014.31
2017-07-07T15:45:02.945Z,1014.34
2017-07-07T15:50:03.424Z,1014.32
2017-07-07T15:55:02.683Z,1014.33
2017-07-07T16:00:03.156Z,1014.25
2017-07-07T16:05:02.631Z,1014.25
2017-07-07T16:10:03.211Z,1014.25
2017-07-07T16:15:02.686Z,1014.24
2017-07-07T16:20:03.046Z,1014.23
2017-07-07T16:25:03.457Z,1014.17
2017-07-07T16:30:02.745Z,1014.14
2017-07-07T16:35:03.116Z,1014.24
2017-07-07T16:40:02.662Z,1014.24
2017-07-07T16:45:03.104Z,1014.29
2017-07-07T16:50:03.450Z,1014.35
2017-07-07T16:55:02.953Z,1014.41
2017-07-07T17:00:03.273Z,1014.41
2017-07-07T17:05:02.699Z,1014.39
2017-07-07T17:10:03.045Z,1014.33
2017-07-07T17:15:03.428Z,1014.35
2017-07-07T17:20:02.711Z,1014.46
2017-07-07T17:25:03.034Z,1014.57
2017-07-07T17:30:03.469Z,1014.56
2017-07-07T17:35:02.836Z,1014.66
2017-07-07T17:40:03.178Z,1014.75
2017-07-07T17:45:03.525Z,1014.84
2017-07-07T17:50:02.830Z,1014.87
2017-07-07T17:55:03.138Z,1014.93
2017-07-07T18:00:02.645Z,1014.94
2017-07-07T18:05:03.108Z,1014.93
2017-07-07T18:10:03.497Z,1015.05
2017-07-07T18:15:02.839Z,1015.02
2017-07-07T18:20:03.163Z,1015.12
2017-07-07T18:25:02.635Z,1015.11
2017-07-07T18:30:03.201Z,1015.08
2017-07-07T18:35:02.879Z,1015.09
2017-07-07T18:40:03.248Z,1015.13
2017-07-07T18:45:02.689Z,1015.13
2017-07-07T18:50:03.053Z,1015.15
2017-07-07T18:55:03.330Z,1015.14
2017-07-07T19:00:03.544Z,1015.19
2017-07-07T19:05:03.120Z,1015.23
2017-07-07T19:10:02.549Z,1015.23
2017-07-07T19:15:02.945Z,1015.24
2017-07-07T19:20:03.252Z,1015.31
2017-07-07T19:25:02.544Z,1015.36
2017-07-07T19:30:03.017Z,1015.39
2017-07-07T19:35:03.516Z,1015.51
2017-07-07T19:40:02.846Z,1015.55
2017-07-07T19:45:03.265Z,1015.74
2017-07-07T19:50:02.535Z,1015.75
2017-07-07T19:55:02.876Z,1015.7
2017-07-07T20:00:03.153Z,1015.76
2017-07-07T20:05:02.559Z,1015.67
2017-07-07T20:10:03.102Z,1015.77
2017-07-07T20:15:02.625Z,1015.95
2017-07-07T20:20:03.184Z,1015.89
2017-07-07T20:25:02.676Z,1015.91
2017-07-07T20:30:03.188Z,1015.97
2017-07-07T20:35:03.475Z,1015.93
2017-07-07T20:40:02.915Z,1016.02
2017-07-07T20:45:03.249Z,1016.13
2017-07-07T20:50:02.690Z,1016.27
2017-07-07T20:55:03.001Z,1016.28
2017-07-07T21:00:03.345Z,1016.17
2017-07-07T21:05:02.815Z,1016.18
2017-07-07T21:10:03.264Z,1016.09
2017-07-07T21:15:02.727Z,1016.14
2017-07-07T21:20:03.081Z,1016.11
2017-07-07T21:25:02.653Z,1016.03
2017-07-07T21:30:03.237Z,1016.19
2017-07-07T21:35:02.743Z,1016.09
2017-07-07T21:40:03.278Z,1016.07
2017-07-07T21:45:02.769Z,1016.18
2017-07-07T21:50:03.211Z,1016.22
2017-07-07T21:55:03.480Z,1016.27
2017-07-07T22:00:02.980Z,1016.23
2017-07-07T22:05:03.322Z,1016.12
2017-07-07T22:10:02.885Z,1016.11
2017-07-07T22:15:03.348Z,1016.21
2017-07-07T22:20:02.807Z,1016.16
2017-07-07T22:25:03.290Z,1016.24
2017-07-07T22:30:02.587Z,1016.27
2017-07-07T22:35:02.923Z,1016.29
2017-07-07T22:40:03.230Z,1016.35
2017-07-07T22:45:02.783Z,1016.32
2017-07-07T22:50:03.544Z,1016.43
2017-07-07T22:55:02.810Z,1016.48
2017-07-07T23:00:03.249Z,1016.43
2017-07-07T23:05:02.614Z,1016.45
2017-07-07T23:10:02.968Z,1016.39
2017-07-07T23:15:03.362Z,1016.38
2017-07-07T23:20:02.664Z,1016.42
2017-07-07T23:25:03.165Z,1016.4
2017-07-07T23:30:02.502Z,1016.39
2017-07-07T23:35:02.768Z,1016.41
2017-07-07T23:40:03.283Z,1016.36
2017-07-07T23:45:02.674Z,1016.32
2017-07-07T23:50:03.036Z,1016.32
2017-07-07T23:55:03.328Z,1016.33
